createdAt,value
2018-09-11T00:00:49.608Z,78.40
2018-09-11T00:01:49.565Z,79.31
2018-09-11T00:02:49.553Z,79.31
2018-09-11T00:03:49.543Z,79.14
2018-09-11T00:04:49.530Z,78.94
2018-09-11T00:05:49.540Z,79.75
2018-09-11T00:06:49.507Z,79.45
2018-09-11T00:07:49.518Z,79.04
2018-09-11T00:08:49.485Z,79.25
2018-09-11T00:09:49.473Z,79.45
2018-09-11T00:10:49.467Z,79.75
2018-09-11T00:11:49.481Z,79.72
2018-09-11T00:12:49.440Z,79.45
2018-09-11T00:13:49.429Z,79.35
2018-09-11T00:14:49.418Z,79.31
2018-09-11T00:15:49.407Z,79.41
2018-09-11T00:16:49.417Z,79.11
2018-09-11T00:17:49.422Z,79.41
2018-09-11T00:18:49.373Z,78.70
2018-09-11T00:19:49.362Z,78.70
2018-09-11T00:20:49.352Z,79.11
2018-09-11T00:21:49.341Z,79.61
2018-09-11T00:22:49.350Z,79.51
2018-09-11T00:23:49.317Z,78.60
2018-09-11T00:24:49.308Z,79.61
2018-09-11T00:25:49.317Z,78.60
2018-09-11T00:26:49.288Z,79.51
2018-09-11T00:27:49.273Z,79.51
2018-09-11T00:28:49.263Z,79.65
2018-09-11T00:29:49.253Z,79.61
2018-09-11T00:30:49.262Z,79.51
2018-09-11T00:31:49.246Z,80.22
2018-09-11T00:32:49.258Z,80.12
2018-09-11T00:33:49.208Z,80.43
2018-09-11T00:34:49.197Z,80.32
2018-09-11T00:35:49.185Z,79.72
2018-09-11T00:36:49.174Z,79.61
2018-09-11T00:37:49.184Z,79.72
2018-09-11T00:38:49.152Z,79.61
2018-09-11T00:39:49.141Z,79.72
2018-09-11T00:40:49.155Z,79.51
2018-09-11T00:41:49.122Z,79.72
2018-09-11T00:42:49.132Z,79.61
2018-09-11T00:43:49.097Z,79.51
2018-09-11T00:44:49.125Z,79.51
2018-09-11T00:45:49.077Z,80.12
2018-09-11T00:46:49.063Z,79.72
2018-09-11T00:47:49.052Z,79.61
2018-09-11T00:48:49.042Z,79.11
2018-09-11T00:49:49.051Z,79.41
2018-09-11T00:50:49.019Z,79.51
2018-09-11T00:51:49.076Z,79.00
2018-09-11T00:52:48.998Z,79.41
2018-09-11T00:53:49.038Z,79.31
2018-09-11T00:54:48.979Z,79.61
2018-09-11T00:55:48.964Z,79.61
2018-09-11T00:56:48.952Z,79.51
2018-09-11T00:57:48.944Z,79.61
2018-09-11T00:58:48.952Z,79.75
2018-09-11T00:59:48.920Z,79.61
2018-09-11T01:00:48.931Z,79.31
2018-09-11T01:01:48.897Z,79.55
2018-09-11T01:02:48.912Z,79.35
2018-09-11T01:03:48.875Z,79.75
2018-09-11T01:04:48.864Z,80.16
2018-09-11T01:05:48.874Z,80.36
2018-09-11T01:06:48.842Z,80.36
2018-09-11T01:07:48.830Z,80.16
2018-09-11T01:08:48.820Z,79.96
2018-09-11T01:09:48.842Z,79.96
2018-09-11T01:10:48.797Z,80.16
2018-09-11T01:11:48.787Z,79.85
2018-09-11T01:12:48.776Z,80.66
2018-09-11T01:13:48.764Z,80.06
2018-09-11T01:14:48.785Z,80.66
2018-09-11T01:15:48.742Z,80.87
2018-09-11T01:16:48.734Z,80.57
2018-09-11T01:17:48.725Z,80.50
2018-09-11T01:18:48.709Z,80.50
2018-09-11T01:19:48.719Z,80.46
2018-09-11T01:20:48.686Z,80.57
2018-09-11T01:21:48.675Z,80.57
2018-09-11T01:22:48.666Z,80.46
2018-09-11T01:23:48.655Z,80.87
2018-09-11T01:24:48.665Z,80.97
2018-09-11T01:25:48.630Z,80.57
2018-09-11T01:26:55.133Z,81.07
2018-09-11T01:27:48.609Z,80.97
2018-09-11T01:28:48.611Z,80.77
2018-09-11T01:29:48.591Z,80.36
2018-09-11T01:30:48.581Z,80.26
2018-09-11T01:31:48.564Z,79.85
2018-09-11T01:32:48.553Z,79.96
2018-09-11T01:33:48.576Z,80.87
2018-09-11T01:34:48.531Z,80.06
2018-09-11T01:35:48.521Z,80.16
2018-09-11T01:36:48.514Z,80.87
2018-09-11T01:37:48.503Z,80.46
2018-09-11T01:38:48.515Z,80.77
2018-09-11T01:39:48.476Z,80.66
2018-09-11T01:40:48.465Z,80.97
2018-09-11T01:41:48.456Z,80.66
2018-09-11T01:42:48.444Z,80.50
2018-09-11T01:43:48.453Z,81.82
2018-09-11T01:44:48.423Z,81.68
2018-09-11T01:45:48.416Z,80.87
2018-09-11T01:46:48.399Z,81.52
2018-09-11T01:47:48.387Z,80.91
2018-09-11T01:48:48.398Z,81.72
2018-09-11T01:49:48.372Z,81.41
2018-09-11T01:50:48.357Z,81.31
2018-09-11T01:51:48.351Z,81.31
2018-09-11T01:52:48.362Z,80.71
2018-09-11T01:53:48.324Z,81.72
2018-09-11T01:54:48.367Z,81.21
2018-09-11T01:55:48.355Z,81.21
2018-09-11T01:56:48.288Z,81.58
2018-09-11T01:57:48.301Z,80.97
2018-09-11T01:58:48.312Z,81.88
2018-09-11T01:59:48.359Z,81.58
2018-09-11T02:00:48.248Z,80.77
2018-09-11T02:01:48.233Z,80.16
2018-09-11T02:02:48.247Z,79.75
2018-09-11T02:03:48.212Z,79.75
2018-09-11T02:04:48.207Z,80.02
2018-09-11T02:05:48.216Z,79.21
2018-09-11T02:06:48.182Z,79.31
2018-09-11T02:07:48.167Z,79.00
2018-09-11T02:08:48.159Z,78.36
2018-09-11T02:09:48.146Z,78.16
2018-09-11T02:10:48.159Z,78.06
2018-09-11T02:11:48.121Z,77.75
2018-09-11T02:12:48.111Z,77.25
2018-09-11T02:13:48.099Z,77.55
2018-09-11T02:14:48.094Z,76.64
2018-09-11T02:15:48.100Z,76.60
2018-09-11T02:16:48.067Z,76.09
2018-09-11T02:17:48.056Z,76.29
2018-09-11T02:18:48.048Z,75.96
2018-09-11T02:19:48.038Z,76.36
2018-09-11T02:20:48.060Z,76.70
2018-09-11T02:21:48.011Z,75.76
2018-09-11T02:22:47.999Z,75.25
2018-09-11T02:23:47.989Z,74.13
2018-09-11T02:24:47.982Z,74.84
2018-09-11T02:25:47.992Z,75.15
2018-09-11T02:26:47.976Z,74.64
2018-09-11T02:27:47.945Z,74.33
2018-09-11T02:28:47.933Z,75.42
2018-09-11T02:29:47.928Z,73.69
2018-09-11T02:30:47.951Z,73.80
2018-09-11T02:31:47.900Z,74.81
2018-09-11T02:32:47.913Z,75.25
2018-09-11T02:33:47.881Z,74.20
2018-09-11T02:34:47.867Z,74.04
2018-09-11T02:35:47.894Z,74.30
2018-09-11T02:36:47.867Z,74.40
2018-09-11T02:37:47.836Z,75.42
2018-09-11T02:38:47.824Z,73.59
2018-09-11T02:39:47.843Z,73.49
2018-09-11T02:40:47.801Z,73.69
2018-09-11T02:41:47.797Z,73.90
2018-09-11T02:42:47.779Z,73.19
2018-09-11T02:43:47.772Z,74.20
2018-09-11T02:44:47.788Z,73.49
2018-09-11T02:45:47.745Z,73.69
2018-09-11T02:46:47.736Z,74.10
2018-09-11T02:47:47.723Z,73.29
2018-09-11T02:48:47.718Z,73.80
2018-09-11T02:49:47.724Z,73.59
2018-09-11T02:50:47.690Z,74.30
2018-09-11T02:51:47.682Z,73.90
2018-09-11T02:52:47.680Z,73.29
2018-09-11T02:53:47.657Z,74.20
2018-09-11T02:54:47.672Z,74.60
2018-09-11T02:55:47.667Z,73.90
2018-09-11T02:56:47.623Z,73.59
2018-09-11T02:57:47.613Z,73.59
2018-09-11T02:58:47.601Z,74.51
2018-09-11T02:59:47.601Z,74.10
2018-09-11T03:00:47.611Z,73.59
2018-09-11T03:01:47.569Z,73.90
2018-09-11T03:02:47.560Z,74.00
2018-09-11T03:03:47.546Z,73.80
2018-09-11T03:04:47.536Z,73.29
2018-09-11T03:05:47.553Z,74.30
2018-09-11T03:06:47.512Z,75.31
2018-09-11T03:07:47.506Z,74.10
2018-09-11T03:08:47.491Z,74.51
2018-09-11T03:09:47.480Z,73.69
2018-09-11T03:10:47.501Z,73.80
2018-09-11T03:11:47.462Z,73.90
2018-09-11T03:12:47.446Z,73.49
2018-09-11T03:13:47.445Z,73.69
2018-09-11T03:14:47.433Z,74.30
2018-09-11T03:15:47.456Z,74.40
2018-09-11T03:16:47.403Z,74.30
2018-09-11T03:17:47.395Z,74.40
2018-09-11T03:18:47.457Z,74.30
2018-09-11T03:19:47.368Z,74.10
2018-09-11T03:20:47.379Z,73.90
2018-09-11T03:21:47.368Z,73.80
2018-09-11T03:22:47.336Z,73.80
2018-09-11T03:23:47.325Z,74.27
2018-09-11T03:24:47.321Z,75.42
2018-09-11T03:25:47.307Z,75.11
2018-09-11T03:26:47.314Z,75.11
2018-09-11T03:27:47.285Z,74.40
2018-09-11T03:28:47.387Z,75.21
2018-09-11T03:29:47.270Z,75.21
2018-09-11T03:30:47.248Z,74.40
2018-09-11T03:31:47.242Z,74.30
2018-09-11T03:32:47.224Z,74.71
2018-09-11T03:33:47.268Z,74.10
2018-09-11T03:34:47.205Z,75.52
2018-09-11T03:35:47.217Z,75.11
2018-09-11T03:36:47.184Z,75.21
2018-09-11T03:37:47.170Z,75.01
2018-09-11T03:38:47.346Z,75.21
2018-09-11T03:39:47.153Z,75.21
2018-09-11T03:40:47.136Z,75.11
2018-09-11T03:41:47.129Z,74.91
2018-09-11T03:42:47.114Z,75.11
2018-09-11T03:43:47.124Z,75.92
2018-09-11T03:44:47.092Z,75.55
2018-09-11T03:45:47.082Z,75.65
2018-09-11T03:46:47.070Z,75.21
2018-09-11T03:47:47.062Z,76.16
2018-09-11T03:48:47.088Z,75.31
2018-09-11T03:49:47.038Z,75.96
2018-09-11T03:50:47.028Z,75.96
2018-09-11T03:51:47.025Z,75.62
2018-09-11T03:52:47.004Z,75.76
2018-09-11T03:53:47.028Z,76.06
2018-09-11T03:54:47.031Z,75.55
2018-09-11T03:55:46.974Z,75.65
2018-09-11T03:56:47.006Z,75.85
2018-09-11T03:57:46.954Z,75.85
2018-09-11T03:58:47.076Z,76.56
2018-09-11T03:59:46.937Z,76.56
2018-09-11T04:00:46.994Z,77.17
2018-09-11T04:01:46.904Z,77.28
2018-09-11T04:02:47.142Z,76.77
2018-09-11T04:03:46.913Z,77.17
2018-09-11T04:04:46.874Z,77.07
2018-09-11T04:05:46.872Z,77.78
2018-09-11T04:06:46.874Z,78.02
2018-09-11T04:07:46.843Z,78.73
2018-09-11T04:08:46.855Z,78.02
2018-09-11T04:09:46.815Z,78.93
2018-09-11T04:10:46.809Z,78.73
2018-09-11T04:11:46.794Z,78.33
2018-09-11T04:12:46.789Z,79.17
2018-09-11T04:13:46.793Z,79.47
2018-09-11T04:14:46.790Z,78.97
2018-09-11T04:15:46.749Z,79.27
2018-09-11T04:16:46.738Z,78.91
2018-09-11T04:17:46.735Z,79.38
2018-09-11T04:18:46.716Z,78.77
2018-09-11T04:19:46.727Z,79.38
2018-09-11T04:20:46.693Z,80.19
2018-09-11T04:21:46.683Z,80.22
2018-09-11T04:22:46.671Z,80.22
2018-09-11T04:23:46.682Z,80.12
2018-09-11T04:24:46.651Z,80.93
2018-09-11T04:25:46.759Z,80.53
2018-09-11T04:26:46.636Z,80.22
2018-09-11T04:27:46.654Z,80.46
2018-09-11T04:28:46.620Z,80.77
2018-09-11T04:29:46.792Z,80.57
2018-09-11T04:30:46.726Z,79.85
2018-09-11T04:31:46.577Z,80.97
2018-09-11T04:32:46.562Z,80.87
2018-09-11T04:33:46.550Z,80.87
2018-09-11T04:34:46.569Z,81.99
2018-09-11T04:35:46.538Z,80.30
2018-09-11T04:36:46.517Z,80.91
2018-09-11T04:37:46.517Z,82.03
2018-09-11T04:38:46.495Z,80.77
2018-09-11T04:39:46.509Z,80.36
2018-09-11T04:40:46.477Z,81.07
2018-09-11T04:41:46.490Z,81.68
2018-09-11T04:42:46.454Z,82.09
2018-09-11T04:43:46.464Z,81.99
2018-09-11T04:44:46.429Z,81.68
2018-09-11T04:45:46.439Z,81.21
2018-09-11T04:46:46.410Z,81.82
2018-09-11T04:47:46.417Z,82.19
2018-09-11T04:48:46.385Z,81.07
2018-09-11T04:49:46.395Z,81.48
2018-09-11T04:50:46.375Z,81.68
2018-09-11T04:51:46.374Z,80.77
2018-09-11T04:52:46.364Z,81.88
2018-09-11T04:53:46.362Z,80.97
2018-09-11T04:54:46.317Z,80.66
2018-09-11T04:55:46.319Z,80.57
2018-09-11T04:56:46.300Z,80.87
2018-09-11T04:57:46.284Z,80.97
2018-09-11T04:58:46.303Z,80.77
2018-09-11T04:59:46.264Z,80.77
2018-09-11T05:00:46.251Z,81.88
2018-09-11T05:01:46.244Z,81.88
2018-09-11T05:02:46.235Z,80.66
2018-09-11T05:03:46.250Z,80.46
2018-09-11T05:04:46.211Z,81.07
2018-09-11T05:05:46.197Z,80.46
2018-09-11T05:06:46.191Z,80.87
2018-09-11T05:07:46.173Z,81.34
2018-09-11T05:08:46.188Z,80.83
2018-09-11T05:09:46.151Z,80.32
2018-09-11T05:10:46.140Z,81.24
2018-09-11T05:11:46.129Z,81.85
2018-09-11T05:12:46.122Z,80.83
2018-09-11T05:13:46.127Z,80.83
2018-09-11T05:14:46.097Z,80.43
2018-09-11T05:15:46.085Z,80.22
2018-09-11T05:16:46.102Z,80.83
2018-09-11T05:17:46.063Z,81.04
2018-09-11T05:18:46.084Z,81.04
2018-09-11T05:19:46.040Z,80.79
2018-09-11T05:20:46.031Z,80.63
2018-09-11T05:21:46.019Z,81.04
2018-09-11T05:22:46.019Z,80.83
2018-09-11T05:23:46.036Z,80.83
2018-09-11T05:24:46.008Z,80.43
2018-09-11T05:25:45.982Z,80.93
2018-09-11T05:26:45.973Z,79.47
2018-09-11T05:27:45.952Z,80.59
2018-09-11T05:28:45.941Z,80.39
2018-09-11T05:29:45.954Z,79.98
2018-09-11T05:30:45.951Z,80.69
2018-09-11T05:31:45.912Z,79.98
2018-09-11T05:32:45.896Z,79.58
2018-09-11T05:33:45.885Z,80.39
2018-09-11T05:34:45.879Z,80.19
2018-09-11T05:35:45.886Z,80.29
2018-09-11T05:36:45.853Z,79.27
2018-09-11T05:37:45.905Z,79.58
2018-09-11T05:38:45.835Z,79.38
2018-09-11T05:39:45.824Z,78.77
2018-09-11T05:40:45.808Z,78.46
2018-09-11T05:41:45.819Z,78.83
2018-09-11T05:42:45.819Z,78.63
2018-09-11T05:43:45.779Z,78.53
2018-09-11T05:44:45.766Z,79.03
2018-09-11T05:45:45.753Z,78.53
2018-09-11T05:46:45.746Z,78.12
2018-09-11T05:47:45.754Z,78.73
2018-09-11T05:48:45.724Z,77.31
2018-09-11T05:49:45.708Z,77.72
2018-09-11T05:50:45.696Z,78.22
2018-09-11T05:51:45.715Z,77.61
2018-09-11T05:52:45.679Z,77.58
2018-09-11T05:53:45.676Z,77.58
2018-09-11T05:54:45.653Z,77.48
2018-09-11T05:55:45.643Z,77.17
2018-09-11T05:56:45.655Z,77.07
2018-09-11T05:57:45.618Z,76.46
2018-09-11T05:58:45.613Z,77.48
2018-09-11T05:59:45.597Z,76.56
2018-09-11T06:00:45.600Z,76.46
2018-09-11T06:01:45.601Z,75.76
2018-09-11T06:02:45.599Z,75.85
2018-09-11T06:03:45.559Z,76.46
2018-09-11T06:04:45.546Z,75.45
2018-09-11T06:05:45.691Z,75.55
2018-09-11T06:06:45.521Z,75.76
2018-09-11T06:07:45.531Z,76.32
2018-09-11T06:08:45.497Z,75.82
2018-09-11T06:09:45.491Z,75.35
2018-09-11T06:10:45.496Z,75.11
2018-09-11T06:11:45.470Z,75.85
2018-09-11T06:12:45.465Z,75.76
2018-09-11T06:13:45.465Z,76.56
2018-09-11T06:14:45.454Z,75.45
2018-09-11T06:15:45.448Z,75.42
2018-09-11T06:16:45.411Z,75.31
2018-09-11T06:17:45.397Z,75.21
2018-09-11T06:18:45.387Z,75.11
2018-09-11T06:19:45.376Z,75.21
2018-09-11T06:20:45.387Z,75.01
2018-09-11T06:21:45.352Z,74.91
2018-09-11T06:22:45.344Z,73.96
2018-09-11T06:23:45.333Z,74.27
2018-09-11T06:24:45.345Z,73.96
2018-09-11T06:25:45.358Z,74.07
2018-09-11T06:26:45.312Z,73.86
2018-09-11T06:27:45.292Z,74.07
2018-09-11T06:28:45.278Z,73.63
2018-09-11T06:29:45.268Z,73.22
2018-09-11T06:30:45.254Z,72.81
2018-09-11T06:31:45.266Z,73.22
2018-09-11T06:32:45.232Z,73.32
2018-09-11T06:33:45.228Z,72.61
2018-09-11T06:34:45.215Z,72.81
2018-09-11T06:35:45.204Z,73.08
2018-09-11T06:36:45.209Z,72.61
2018-09-11T06:37:45.181Z,73.08
2018-09-11T06:38:45.165Z,72.08
2018-09-11T06:39:45.175Z,72.68
2018-09-11T06:40:45.144Z,72.78
2018-09-11T06:41:45.157Z,72.68
2018-09-11T06:42:45.123Z,72.14
2018-09-11T06:43:45.110Z,72.48
2018-09-11T06:44:45.149Z,72.44
2018-09-11T06:45:45.092Z,72.44
2018-09-11T06:46:45.107Z,73.55
2018-09-11T06:47:45.068Z,72.24
2018-09-11T06:48:45.076Z,72.04
2018-09-11T06:49:45.045Z,72.34
2018-09-11T06:50:45.035Z,72.14
2018-09-11T06:51:45.024Z,72.55
2018-09-11T06:52:45.011Z,72.44
2018-09-11T06:53:45.022Z,71.44
2018-09-11T06:54:45.027Z,71.23
2018-09-11T06:55:44.981Z,72.71
2018-09-11T06:56:44.968Z,72.61
2018-09-11T06:57:44.956Z,72.61
2018-09-11T06:58:45.062Z,71.77
2018-09-11T06:59:44.933Z,70.76
2018-09-11T07:00:45.012Z,71.87
2018-09-11T07:01:44.967Z,71.53
2018-09-11T07:02:44.903Z,69.72
2018-09-11T07:03:44.909Z,70.39
2018-09-11T07:04:44.877Z,69.85
2018-09-11T07:05:44.867Z,69.15
2018-09-11T07:06:44.880Z,68.61
2018-09-11T07:07:44.847Z,69.29
2018-09-11T07:08:44.833Z,68.95
2018-09-11T07:09:44.862Z,68.24
2018-09-11T07:10:44.811Z,66.23
2018-09-11T07:11:44.805Z,66.91
2018-09-11T07:12:44.810Z,66.17
2018-09-11T07:13:44.781Z,65.77
2018-09-11T07:14:44.804Z,63.82
2018-09-11T07:15:44.756Z,64.83
2018-09-11T07:16:44.767Z,63.39
2018-09-11T07:17:44.756Z,62.86
2018-09-11T07:18:44.723Z,62.46
2018-09-11T07:19:44.794Z,62.76
2018-09-11T07:20:44.721Z,62.73
2018-09-11T07:21:44.692Z,62.73
2018-09-11T07:22:44.679Z,60.49
2018-09-11T07:23:44.687Z,61.19
2018-09-11T07:24:44.664Z,60.49
2018-09-11T07:25:44.674Z,60.89
2018-09-11T07:26:44.639Z,60.57
2018-09-11T07:27:44.624Z,59.56
2018-09-11T07:28:44.612Z,60.10
2018-09-11T07:29:44.600Z,61.22
2018-09-11T07:30:44.614Z,60.42
2018-09-11T07:31:44.580Z,59.72
2018-09-11T07:32:44.570Z,60.10
2018-09-11T07:33:44.587Z,61.00
2018-09-11T07:34:44.551Z,60.39
2018-09-11T07:35:44.540Z,60.36
2018-09-11T07:36:44.529Z,59.96
2018-09-11T07:37:44.529Z,59.26
2018-09-11T07:38:44.529Z,59.94
2018-09-11T07:39:44.495Z,58.63
2018-09-11T07:40:44.481Z,59.33
2018-09-11T07:41:44.472Z,59.61
2018-09-11T07:42:44.462Z,58.30
2018-09-11T07:43:44.483Z,58.40
2018-09-11T07:44:44.436Z,59.00
2018-09-11T07:45:44.424Z,58.43
2018-09-11T07:46:44.417Z,57.46
2018-09-11T07:47:44.402Z,58.36
2018-09-11T07:48:44.413Z,59.39
2018-09-11T07:49:44.389Z,58.99
2018-09-11T07:50:44.368Z,58.96
2018-09-11T07:51:44.357Z,58.59
2018-09-11T07:52:44.503Z,59.79
2018-09-11T07:53:44.361Z,59.52
2018-09-11T07:54:44.347Z,59.79
2018-09-11T07:55:44.334Z,59.59
2018-09-11T07:56:44.306Z,59.59
2018-09-11T07:57:44.405Z,60.49
2018-09-11T07:58:44.279Z,58.69
2018-09-11T07:59:44.299Z,58.89
2018-09-11T08:00:44.260Z,59.16
2018-09-11T08:01:44.249Z,57.96
2018-09-11T08:02:44.236Z,58.76
2018-09-11T08:03:44.247Z,58.99
2018-09-11T08:04:44.218Z,58.39
2018-09-11T08:05:44.232Z,59.19
2018-09-11T08:06:44.191Z,59.59
2018-09-11T08:07:44.186Z,59.26
2018-09-11T08:08:44.191Z,59.64
2018-09-11T08:09:44.164Z,58.23
2018-09-11T08:10:44.146Z,57.73
2018-09-11T08:11:44.134Z,57.43
2018-09-11T08:12:44.147Z,59.00
2018-09-11T08:13:44.119Z,57.30
2018-09-11T08:14:44.102Z,57.70
2018-09-11T08:15:44.101Z,56.30
2018-09-11T08:16:44.103Z,55.70
2018-09-11T08:17:44.069Z,57.10
2018-09-11T08:18:44.064Z,55.47
2018-09-11T08:19:44.101Z,56.30
2018-09-11T08:20:44.036Z,56.60
2018-09-11T08:21:44.076Z,56.00
2018-09-11T08:22:44.038Z,57.30
2018-09-11T08:23:44.006Z,56.00
2018-09-11T08:24:43.998Z,56.07
2018-09-11T08:25:43.983Z,55.98
2018-09-11T08:26:43.973Z,55.15
2018-09-11T08:27:43.987Z,55.44
2018-09-11T08:28:43.951Z,54.55
2018-09-11T08:29:43.974Z,54.42
2018-09-11T08:30:43.935Z,54.52
2018-09-11T08:31:43.925Z,55.22
2018-09-11T08:32:43.935Z,54.42
2018-09-11T08:33:43.919Z,55.12
2018-09-11T08:34:43.888Z,54.24
2018-09-11T08:35:43.904Z,54.44
2018-09-11T08:36:43.873Z,54.35
2018-09-11T08:37:43.856Z,54.94
2018-09-11T08:38:43.845Z,55.44
2018-09-11T08:39:43.868Z,55.92
2018-09-11T08:40:43.826Z,55.40
2018-09-11T08:41:43.816Z,55.69
2018-09-11T08:42:43.800Z,53.19
2018-09-11T08:43:43.790Z,55.40
2018-09-11T08:44:43.803Z,55.89
2018-09-11T08:45:43.769Z,54.99
2018-09-11T08:46:43.802Z,54.69
2018-09-11T08:47:43.765Z,53.39
2018-09-11T08:48:43.735Z,53.30
2018-09-11T08:49:43.728Z,54.49
2018-09-11T08:50:43.713Z,54.27
2018-09-11T08:51:43.699Z,53.14
2018-09-11T08:52:43.721Z,51.64
2018-09-11T08:53:43.677Z,53.04
2018-09-11T08:54:43.666Z,53.02
2018-09-11T08:55:43.676Z,51.92
2018-09-11T08:56:43.644Z,51.32
2018-09-11T08:57:43.635Z,51.20
2018-09-11T08:58:43.697Z,51.89
2018-09-11T08:59:43.618Z,52.49
2018-09-11T09:00:43.604Z,52.82
2018-09-11T09:01:43.593Z,52.22
2018-09-11T09:02:43.609Z,52.92
2018-09-11T09:03:43.594Z,53.81
2018-09-11T09:04:43.558Z,53.22
2018-09-11T09:05:43.549Z,52.32
2018-09-11T09:06:43.542Z,52.79
2018-09-11T09:07:43.526Z,50.49
2018-09-11T09:08:43.541Z,51.22
2018-09-11T09:09:43.507Z,50.10
2018-09-11T09:10:43.498Z,50.40
2018-09-11T09:11:43.482Z,51.57
2018-09-11T09:12:43.477Z,51.15
2018-09-11T09:13:43.487Z,48.88
2018-09-11T09:14:43.455Z,50.57
2018-09-11T09:15:43.545Z,50.77
2018-09-11T09:16:43.429Z,51.17
2018-09-11T09:17:43.445Z,50.07
2018-09-11T09:18:43.406Z,50.30
2018-09-11T09:19:43.424Z,50.07
2018-09-11T09:20:43.386Z,51.65
2018-09-11T09:21:43.379Z,50.65
2018-09-11T09:22:43.366Z,49.03
2018-09-11T09:23:43.360Z,49.23
2018-09-11T09:24:43.367Z,47.96
2018-09-11T09:25:43.360Z,49.53
2018-09-11T09:26:43.320Z,50.02
2018-09-11T09:27:43.312Z,49.43
2018-09-11T09:28:43.303Z,48.83
2018-09-11T09:29:43.287Z,49.25
2018-09-11T09:30:43.306Z,49.98
2018-09-11T09:31:43.268Z,48.38
2018-09-11T09:32:43.276Z,49.25
2018-09-11T09:33:43.245Z,50.17
2018-09-11T09:34:43.232Z,49.75
2018-09-11T09:35:43.224Z,50.13
2018-09-11T09:36:43.211Z,50.62
2018-09-11T09:37:43.222Z,49.70
2018-09-11T09:38:43.193Z,48.19
2018-09-11T09:39:43.178Z,47.37
2018-09-11T09:40:43.167Z,48.07
2018-09-11T09:41:43.157Z,46.67
2018-09-11T09:42:43.180Z,48.26
2018-09-11T09:43:43.144Z,49.04
2018-09-11T09:44:43.129Z,47.17
2018-09-11T09:45:43.112Z,47.44
2018-09-11T09:46:43.102Z,47.37
2018-09-11T09:47:43.112Z,47.96
2018-09-11T09:48:43.105Z,47.14
2018-09-11T09:49:43.070Z,46.45
2018-09-11T09:50:43.122Z,48.26
2018-09-11T09:51:43.081Z,46.47
2018-09-11T09:52:43.041Z,47.56
2018-09-11T09:53:43.033Z,47.25
2018-09-11T09:54:43.019Z,46.62
2018-09-11T09:55:43.004Z,46.50
2018-09-11T09:56:43.014Z,45.01
2018-09-11T09:57:42.982Z,47.20
2018-09-11T09:58:43.040Z,45.41
2018-09-11T09:59:42.961Z,44.92
2018-09-11T10:00:42.950Z,45.11
2018-09-11T10:01:42.944Z,45.23
2018-09-11T10:02:42.949Z,45.03
2018-09-11T10:03:42.917Z,44.96
2018-09-11T10:04:42.978Z,45.36
2018-09-11T10:05:42.902Z,45.57
2018-09-11T10:06:42.885Z,45.18
2018-09-11T10:07:42.876Z,45.48
2018-09-11T10:08:42.865Z,46.87
2018-09-11T10:09:42.875Z,48.36
2018-09-11T10:10:42.864Z,46.65
2018-09-11T10:11:42.848Z,45.03
2018-09-11T10:12:42.843Z,46.83
2018-09-11T10:13:42.814Z,45.41
2018-09-11T10:14:42.803Z,45.63
2018-09-11T10:15:42.791Z,45.23
2018-09-11T10:16:42.777Z,46.41
2018-09-11T10:17:42.857Z,46.19
2018-09-11T10:18:42.755Z,45.29
2018-09-11T10:19:42.745Z,46.06
2018-09-11T10:20:42.734Z,44.77
2018-09-11T10:21:42.725Z,43.48
2018-09-11T10:22:42.738Z,43.28
2018-09-11T10:23:42.750Z,44.67
2018-09-11T10:24:42.693Z,42.79
2018-09-11T10:25:42.680Z,42.79
2018-09-11T10:26:42.674Z,42.39
2018-09-11T10:27:42.728Z,42.88
2018-09-11T10:28:42.670Z,43.01
2018-09-11T10:29:42.642Z,43.38
2018-09-11T10:30:42.626Z,42.41
2018-09-11T10:31:42.618Z,45.29
2018-09-11T10:32:42.605Z,44.99
2018-09-11T10:33:42.679Z,44.99
2018-09-11T10:34:42.589Z,44.00
2018-09-11T10:35:42.599Z,42.91
2018-09-11T10:36:42.564Z,43.50
2018-09-11T10:37:42.557Z,44.40
2018-09-11T10:38:42.545Z,44.70
2018-09-11T10:39:42.551Z,44.92
2018-09-11T10:40:42.525Z,45.11
2018-09-11T10:41:42.514Z,44.81
2018-09-11T10:42:42.521Z,45.53
2018-09-11T10:43:42.489Z,46.23
2018-09-11T10:44:42.497Z,45.63
2018-09-11T10:45:42.467Z,45.53
2018-09-11T10:46:42.461Z,45.23
2018-09-11T10:47:42.445Z,46.11
2018-09-11T10:48:42.461Z,45.01
2018-09-11T10:49:42.424Z,44.92
2018-09-11T10:50:42.414Z,45.39
2018-09-11T10:51:42.455Z,44.49
2018-09-11T10:52:42.413Z,45.27
2018-09-11T10:53:42.386Z,44.97
2018-09-11T10:54:42.376Z,46.86
2018-09-11T10:55:42.359Z,45.07
2018-09-11T10:56:42.378Z,42.47
2018-09-11T10:57:42.342Z,44.13
2018-09-11T10:58:42.328Z,42.65
2018-09-11T10:59:42.325Z,42.35
2018-09-11T11:00:42.305Z,42.55
2018-09-11T11:01:42.322Z,43.44
2018-09-11T11:02:42.289Z,42.43
2018-09-11T11:03:42.277Z,42.92
2018-09-11T11:04:42.262Z,42.82
2018-09-11T11:05:42.273Z,41.14
2018-09-11T11:06:42.245Z,42.52
2018-09-11T11:07:42.270Z,42.05
2018-09-11T11:08:42.222Z,42.47
2018-09-11T11:09:42.212Z,41.58
2018-09-11T11:10:42.201Z,41.67
2018-09-11T11:11:42.186Z,41.47
2018-09-11T11:12:42.199Z,41.08
2018-09-11T11:13:42.172Z,42.55
2018-09-11T11:14:42.160Z,43.24
2018-09-11T11:15:42.143Z,41.24
2018-09-11T11:16:42.133Z,40.55
2018-09-11T11:17:42.147Z,42.63
2018-09-11T11:18:42.135Z,40.05
2018-09-11T11:19:42.112Z,40.34
2018-09-11T11:20:42.140Z,39.75
2018-09-11T11:21:42.078Z,40.34
2018-09-11T11:22:42.071Z,40.34
2018-09-11T11:23:42.078Z,40.94
2018-09-11T11:24:42.071Z,39.93
2018-09-11T11:25:42.948Z,39.75
2018-09-11T11:26:42.024Z,40.25
2018-09-11T11:27:42.015Z,40.94
2018-09-11T11:28:42.031Z,40.34
2018-09-11T11:29:41.990Z,40.44
2018-09-11T11:30:41.979Z,41.02
2018-09-11T11:31:41.974Z,39.83
2018-09-11T11:32:41.958Z,39.91
2018-09-11T11:33:41.969Z,41.00
2018-09-11T11:34:41.937Z,39.69
2018-09-11T11:35:41.930Z,38.51
2018-09-11T11:36:42.123Z,40.26
2018-09-11T11:37:41.910Z,38.09
2018-09-11T11:38:41.916Z,39.67
2018-09-11T11:39:41.889Z,37.91
2018-09-11T11:40:41.877Z,37.91
2018-09-11T11:41:41.925Z,38.42
2018-09-11T11:42:41.911Z,38.92
2018-09-11T11:43:41.862Z,38.62
2018-09-11T11:44:41.837Z,37.63
2018-09-11T11:45:41.824Z,38.13
2018-09-11T11:46:41.837Z,39.23
2018-09-11T11:47:41.798Z,39.73
2018-09-11T11:48:41.787Z,39.14
2018-09-11T11:49:41.777Z,38.44
2018-09-11T11:50:41.786Z,39.34
2018-09-11T11:51:41.754Z,38.74
2018-09-11T11:52:41.765Z,39.63
2018-09-11T11:53:41.734Z,38.94
2018-09-11T11:54:41.769Z,39.83
2018-09-11T11:55:41.711Z,39.73
2018-09-11T11:56:41.700Z,38.05
2018-09-11T11:57:41.692Z,41.02
2018-09-11T11:58:41.683Z,37.85
2018-09-11T11:59:41.710Z,39.22
2018-09-11T12:00:41.661Z,40.31
2018-09-11T12:01:41.647Z,39.02
2018-09-11T12:02:41.639Z,37.83
2018-09-11T12:03:41.628Z,38.42
2018-09-11T12:04:41.634Z,37.83
2018-09-11T12:05:41.602Z,38.13
2018-09-11T12:06:41.624Z,39.89
2018-09-11T12:07:41.629Z,38.31
2018-09-11T12:08:41.571Z,38.90
2018-09-11T12:09:41.560Z,38.51
2018-09-11T12:10:41.569Z,39.10
2018-09-11T12:11:41.542Z,38.88
2018-09-11T12:12:41.538Z,38.49
2018-09-11T12:13:41.521Z,39.77
2018-09-11T12:14:41.508Z,38.98
2018-09-11T12:15:41.524Z,38.59
2018-09-11T12:16:41.484Z,37.40
2018-09-11T12:17:41.473Z,37.87
2018-09-11T12:18:41.463Z,37.00
2018-09-11T12:19:41.452Z,37.20
2018-09-11T12:20:41.466Z,38.39
2018-09-11T12:21:41.430Z,38.49
2018-09-11T12:22:41.424Z,37.70
2018-09-11T12:23:41.435Z,41.06
2018-09-11T12:24:41.400Z,37.89
2018-09-11T12:25:41.390Z,41.16
2018-09-11T12:26:41.442Z,38.49
2018-09-11T12:27:41.367Z,38.88
2018-09-11T12:28:41.384Z,38.19
2018-09-11T12:29:41.349Z,38.09
2018-09-11T12:30:41.335Z,38.68
2018-09-11T12:31:41.325Z,36.80
2018-09-11T12:32:41.319Z,36.61
2018-09-11T12:33:41.324Z,35.93
2018-09-11T12:34:41.299Z,36.72
2018-09-11T12:35:41.292Z,36.33
2018-09-11T12:36:41.275Z,36.82
2018-09-11T12:37:41.259Z,38.11
2018-09-11T12:38:41.271Z,37.62
2018-09-11T12:39:41.237Z,37.02
2018-09-11T12:40:41.227Z,37.99
2018-09-11T12:41:41.216Z,38.49
2018-09-11T12:42:41.210Z,37.99
2018-09-11T12:43:41.222Z,37.89
2018-09-11T12:44:41.188Z,37.62
2018-09-11T12:45:41.214Z,37.81
2018-09-11T12:46:41.469Z,37.32
2018-09-11T12:47:41.606Z,36.92
2018-09-11T12:48:41.399Z,37.62
2018-09-11T12:49:41.135Z,37.22
2018-09-11T12:50:41.141Z,37.91
2018-09-11T12:51:41.110Z,38.51
2018-09-11T12:52:41.228Z,37.71